sensor_id;sensor_type;location;lat;lon;timestamp;P1;durP1;ratioP1;P2;durP2;ratioP2
22754;SDS011;11544;42.020;23.094;2022-07-11T00:02:04;4.57;;;2.33;;
22754;SDS011;11544;42.020;23.094;2022-07-11T00:04:31;4.32;;;2.15;;
22754;SDS011;11544;42.020;23.094;2022-07-11T00:06:57;2.85;;;2.47;;
22754;SDS011;11544;42.020;23.094;2022-07-11T00:09:24;3.05;;;2.25;;
22754;SDS011;11544;42.020;23.094;2022-07-11T00:11:50;2.25;;;2.08;;
22754;SDS011;11544;42.020;23.094;2022-07-11T00:14:16;3.05;;;2.42;;
22754;SDS011;11544;42.020;23.094;2022-07-11T00:16:43;2.92;;;2.17;;
22754;SDS011;11544;42.020;23.094;2022-07-11T00:19:09;3.30;;;2.30;;
22754;SDS011;11544;42.020;23.094;2022-07-11T00:21:34;4.13;;;2.65;;
22754;SDS011;11544;42.020;23.094;2022-07-11T00:24:04;2.72;;;2.22;;
22754;SDS011;11544;42.020;23.094;2022-07-11T00:26:31;5.05;;;2.45;;
22754;SDS011;11544;42.020;23.094;2022-07-11T00:28:57;4.80;;;2.40;;
22754;SDS011;11544;42.020;23.094;2022-07-11T00:31:23;3.25;;;2.25;;
22754;SDS011;11544;42.020;23.094;2022-07-11T00:33:48;2.60;;;2.40;;
22754;SDS011;11544;42.020;23.094;2022-07-11T00:36:14;2.80;;;2.15;;
22754;SDS011;11544;42.020;23.094;2022-07-11T00:38:40;2.50;;;2.30;;
22754;SDS011;11544;42.020;23.094;2022-07-11T00:41:06;3.70;;;2.45;;
22754;SDS011;11544;42.020;23.094;2022-07-11T00:43:33;4.43;;;2.03;;
22754;SDS011;11544;42.020;23.094;2022-07-11T00:46:01;3.15;;;2.15;;
22754;SDS011;11544;42.020;23.094;2022-07-11T00:48:28;3.22;;;2.40;;
22754;SDS011;11544;42.020;23.094;2022-07-11T00:50:54;3.40;;;2.70;;
22754;SDS011;11544;42.020;23.094;2022-07-11T00:53:21;2.20;;;1.85;;
22754;SDS011;11544;42.020;23.094;2022-07-11T00:55:48;3.90;;;2.38;;
22754;SDS011;11544;42.020;23.094;2022-07-11T00:58:17;4.00;;;2.33;;
22754;SDS011;11544;42.020;23.094;2022-07-11T01:00:43;4.07;;;2.17;;
22754;SDS011;11544;42.020;23.094;2022-07-11T01:03:10;5.32;;;2.28;;
22754;SDS011;11544;42.020;23.094;2022-07-11T01:05:36;3.38;;;2.38;;
22754;SDS011;11544;42.020;23.094;2022-07-11T01:08:02;3.40;;;2.25;;
22754;SDS011;11544;42.020;23.094;2022-07-11T01:10:28;3.00;;;2.40;;
22754;SDS011;11544;42.020;23.094;2022-07-11T01:12:54;4.40;;;2.50;;
22754;SDS011;11544;42.020;23.094;2022-07-11T01:15:20;4.72;;;2.70;;
22754;SDS011;11544;42.020;23.094;2022-07-11T01:17:46;2.45;;;2.17;;
22754;SDS011;11544;42.020;23.094;2022-07-11T01:20:12;5.53;;;2.17;;
22754;SDS011;11544;42.020;23.094;2022-07-11T01:22:43;2.88;;;2.25;;
22754;SDS011;11544;42.020;23.094;2022-07-11T01:25:14;5.22;;;1.98;;
22754;SDS011;11544;42.020;23.094;2022-07-11T01:28:05;2.75;;;2.30;;
22754;SDS011;11544;42.020;23.094;2022-07-11T01:30:34;2.53;;;2.33;;
22754;SDS011;11544;42.020;23.094;2022-07-11T01:33:00;2.40;;;2.20;;
22754;SDS011;11544;42.020;23.094;2022-07-11T01:35:27;4.07;;;2.60;;
22754;SDS011;11544;42.020;23.094;2022-07-11T01:37:54;2.92;;;2.47;;
22754;SDS011;11544;42.020;23.094;2022-07-11T01:40:19;6.13;;;2.70;;
22754;SDS011;11544;42.020;23.094;2022-07-11T01:42:46;4.72;;;2.90;;
22754;SDS011;11544;42.020;23.094;2022-07-11T01:45:12;3.20;;;3.00;;
22754;SDS011;11544;42.020;23.094;2022-07-11T01:47:38;2.67;;;2.47;;
22754;SDS011;11544;42.020;23.094;2022-07-11T01:50:04;2.72;;;2.47;;
22754;SDS011;11544;42.020;23.094;2022-07-11T01:52:31;4.78;;;2.65;;
22754;SDS011;11544;42.020;23.094;2022-07-11T01:54:56;2.92;;;2.72;;
22754;SDS011;11544;42.020;23.094;2022-07-11T01:57:22;2.65;;;2.45;;
22754;SDS011;11544;42.020;23.094;2022-07-11T01:59:48;2.80;;;2.47;;
22754;SDS011;11544;42.020;23.094;2022-07-11T02:02:15;3.03;;;2.80;;
22754;SDS011;11544;42.020;23.094;2022-07-11T02:04:40;3.38;;;2.55;;
22754;SDS011;11544;42.020;23.094;2022-07-11T02:07:07;3.05;;;2.30;;
22754;SDS011;11544;42.020;23.094;2022-07-11T02:09:35;3.08;;;2.75;;
22754;SDS011;11544;42.020;23.094;2022-07-11T02:12:00;3.47;;;2.85;;
22754;SDS011;11544;42.020;23.094;2022-07-11T02:14:26;3.70;;;2.80;;
22754;SDS011;11544;42.020;23.094;2022-07-11T02:16:51;3.20;;;2.90;;
22754;SDS011;11544;42.020;23.094;2022-07-11T02:19:17;2.40;;;2.20;;
22754;SDS011;11544;42.020;23.094;2022-07-11T02:21:43;2.72;;;2.53;;
22754;SDS011;11544;42.020;23.094;2022-07-11T02:24:08;8.30;;;3.58;;
22754;SDS011;11544;42.020;23.094;2022-07-11T02:26:35;3.38;;;2.85;;
22754;SDS011;11544;42.020;23.094;2022-07-11T02:29:00;4.32;;;2.72;;
22754;SDS011;11544;42.020;23.094;2022-07-11T02:31:26;3.70;;;2.90;;
22754;SDS011;11544;42.020;23.094;2022-07-11T02:33:52;4.30;;;3.15;;
22754;SDS011;11544;42.020;23.094;2022-07-11T02:36:18;5.47;;;3.15;;
22754;SDS011;11544;42.020;23.094;2022-07-11T02:38:44;5.72;;;2.60;;
22754;SDS011;11544;42.020;23.094;2022-07-11T02:41:09;5.38;;;2.80;;
22754;SDS011;11544;42.020;23.094;2022-07-11T02:43:35;3.70;;;2.47;;
22754;SDS011;11544;42.020;23.094;2022-07-11T02:46:01;2.63;;;2.42;;
22754;SDS011;11544;42.020;23.094;2022-07-11T02:48:27;3.40;;;2.60;;
22754;SDS011;11544;42.020;23.094;2022-07-11T02:50:53;4.28;;;2.70;;
22754;SDS011;11544;42.020;23.094;2022-07-11T02:53:19;3.58;;;3.08;;
22754;SDS011;11544;42.020;23.094;2022-07-11T02:55:45;3.53;;;3.17;;
22754;SDS011;11544;42.020;23.094;2022-07-11T02:58:10;3.38;;;2.88;;
22754;SDS011;11544;42.020;23.094;2022-07-11T03:00:36;3.30;;;3.00;;
22754;SDS011;11544;42.020;23.094;2022-07-11T03:03:02;3.85;;;2.95;;
22754;SDS011;11544;42.020;23.094;2022-07-11T03:05:28;3.10;;;2.88;;
22754;SDS011;11544;42.020;23.094;2022-07-11T03:07:54;3.20;;;2.90;;
22754;SDS011;11544;42.020;23.094;2022-07-11T03:10:19;6.57;;;2.90;;
22754;SDS011;11544;42.020;23.094;2022-07-11T03:12:48;4.07;;;2.90;;
22754;SDS011;11544;42.020;23.094;2022-07-11T03:15:14;9.50;;;3.15;;
22754;SDS011;11544;42.020;23.094;2022-07-11T03:17:40;3.72;;;3.17;;
22754;SDS011;11544;42.020;23.094;2022-07-11T03:20:06;4.75;;;3.03;;
22754;SDS011;11544;42.020;23.094;2022-07-11T03:22:32;2.95;;;2.72;;
22754;SDS011;11544;42.020;23.094;2022-07-11T03:24:58;3.53;;;3.22;;
22754;SDS011;11544;42.020;23.094;2022-07-11T03:27:25;3.88;;;2.95;;
22754;SDS011;11544;42.020;23.094;2022-07-11T03:29:51;3.85;;;2.90;;
22754;SDS011;11544;42.020;23.094;2022-07-11T03:32:17;3.50;;;2.72;;
22754;SDS011;11544;42.020;23.094;2022-07-11T03:34:46;3.70;;;2.83;;
22754;SDS011;11544;42.020;23.094;2022-07-11T03:37:32;4.22;;;3.03;;
22754;SDS011;11544;42.020;23.094;2022-07-11T03:39:58;3.40;;;3.05;;
22754;SDS011;11544;42.020;23.094;2022-07-11T03:42:24;5.75;;;3.72;;
22754;SDS011;11544;42.020;23.094;2022-07-11T03:44:51;3.47;;;3.17;;
22754;SDS011;11544;42.020;23.094;2022-07-11T03:47:17;3.53;;;3.25;;
22754;SDS011;11544;42.020;23.094;2022-07-11T03:49:43;3.92;;;3.17;;
22754;SDS011;11544;42.020;23.094;2022-07-11T03:52:09;3.83;;;3.42;;
22754;SDS011;11544;42.020;23.094;2022-07-11T03:54:35;4.35;;;3.35;;
22754;SDS011;11544;42.020;23.094;2022-07-11T03:57:01;3.60;;;3.22;;
22754;SDS011;11544;42.020;23.094;2022-07-11T03:59:27;7.93;;;2.80;;
22754;SDS011;11544;42.020;23.094;2022-07-11T04:01:53;5.43;;;3.10;;
22754;SDS011;11544;42.020;23.094;2022-07-11T04:04:19;3.67;;;2.95;;
22754;SDS011;11544;42.020;23.094;2022-07-11T04:06:45;3.40;;;3.10;;
22754;SDS011;11544;42.020;23.094;2022-07-11T04:09:10;3.08;;;2.88;;
22754;SDS011;11544;42.020;23.094;2022-07-11T04:11:36;4.60;;;3.25;;
22754;SDS011;11544;42.020;23.094;2022-07-11T04:14:02;6.78;;;2.90;;
22754;SDS011;11544;42.020;23.094;2022-07-11T04:16:28;2.65;;;2.10;;
22754;SDS011;11544;42.020;23.094;2022-07-11T04:18:53;3.70;;;2.80;;
22754;SDS011;11544;42.020;23.094;2022-07-11T04:21:19;3.45;;;2.60;;
22754;SDS011;11544;42.020;23.094;2022-07-11T04:23:44;3.65;;;2.53;;
22754;SDS011;11544;42.020;23.094;2022-07-11T04:26:10;5.68;;;2.60;;
22754;SDS011;11544;42.020;23.094;2022-07-11T04:28:36;2.53;;;2.05;;
22754;SDS011;11544;42.020;23.094;2022-07-11T04:31:02;3.70;;;2.33;;
22754;SDS011;11544;42.020;23.094;2022-07-11T04:33:27;5.00;;;2.70;;
22754;SDS011;11544;42.020;23.094;2022-07-11T04:35:53;2.97;;;2.53;;
22754;SDS011;11544;42.020;23.094;2022-07-11T04:38:19;4.05;;;2.08;;
22754;SDS011;11544;42.020;23.094;2022-07-11T04:40:47;3.67;;;2.25;;
22754;SDS011;11544;42.020;23.094;2022-07-11T04:43:15;3.22;;;1.88;;
22754;SDS011;11544;42.020;23.094;2022-07-11T04:45:41;2.17;;;2.00;;
22754;SDS011;11544;42.020;23.094;2022-07-11T04:48:07;2.38;;;1.80;;
22754;SDS011;11544;42.020;23.094;2022-07-11T04:50:33;5.30;;;2.72;;
22754;SDS011;11544;42.020;23.094;2022-07-11T04:52:58;6.88;;;2.63;;
22754;SDS011;11544;42.020;23.094;2022-07-11T04:55:24;2.10;;;1.90;;
22754;SDS011;11544;42.020;23.094;2022-07-11T04:57:50;2.35;;;2.15;;
22754;SDS011;11544;42.020;23.094;2022-07-11T05:00:16;5.85;;;2.35;;
22754;SDS011;11544;42.020;23.094;2022-07-11T05:02:42;5.47;;;2.38;;
22754;SDS011;11544;42.020;23.094;2022-07-11T05:05:08;5.53;;;2.22;;
22754;SDS011;11544;42.020;23.094;2022-07-11T05:07:34;6.13;;;2.83;;
22754;SDS011;11544;42.020;23.094;2022-07-11T05:10:00;4.70;;;2.47;;
22754;SDS011;11544;42.020;23.094;2022-07-11T05:12:30;4.82;;;2.40;;
22754;SDS011;11544;42.020;23.094;2022-07-11T05:14:56;6.28;;;3.10;;
22754;SDS011;11544;42.020;23.094;2022-07-11T05:17:24;13.13;;;2.30;;
22754;SDS011;11544;42.020;23.094;2022-07-11T05:19:53;5.63;;;2.58;;
22754;SDS011;11544;42.020;23.094;2022-07-11T05:22:18;7.75;;;3.08;;
22754;SDS011;11544;42.020;23.094;2022-07-11T05:24:44;7.25;;;2.53;;
22754;SDS011;11544;42.020;23.094;2022-07-11T05:27:10;4.15;;;2.78;;
22754;SDS011;11544;42.020;23.094;2022-07-11T05:29:36;4.93;;;2.55;;
22754;SDS011;11544;42.020;23.094;2022-07-11T05:32:01;6.38;;;2.38;;
22754;SDS011;11544;42.020;23.094;2022-07-11T05:34:27;3.45;;;2.47;;
22754;SDS011;11544;42.020;23.094;2022-07-11T05:36:53;2.95;;;2.08;;
22754;SDS011;11544;42.020;23.094;2022-07-11T05:39:19;4.43;;;2.35;;
22754;SDS011;11544;42.020;23.094;2022-07-11T05:41:45;5.90;;;2.40;;
22754;SDS011;11544;42.020;23.094;2022-07-11T05:44:10;5.93;;;3.00;;
22754;SDS011;11544;42.020;23.094;2022-07-11T05:46:36;8.02;;;3.53;;
22754;SDS011;11544;42.020;23.094;2022-07-11T05:49:05;4.57;;;2.78;;
22754;SDS011;11544;42.020;23.094;2022-07-11T05:51:33;4.40;;;2.63;;
22754;SDS011;11544;42.020;23.094;2022-07-11T05:53:58;6.45;;;2.63;;
22754;SDS011;11544;42.020;23.094;2022-07-11T05:56:24;8.25;;;2.20;;
22754;SDS011;11544;42.020;23.094;2022-07-11T05:58:51;8.18;;;2.78;;
22754;SDS011;11544;42.020;23.094;2022-07-11T06:01:17;5.88;;;2.55;;
22754;SDS011;11544;42.020;23.094;2022-07-11T06:03:43;5.13;;;2.33;;
22754;SDS011;11544;42.020;23.094;2022-07-11T06:06:09;8.70;;;2.20;;
22754;SDS011;11544;42.020;23.094;2022-07-11T06:08:36;2.58;;;1.85;;
22754;SDS011;11544;42.020;23.094;2022-07-11T06:11:17;3.50;;;2.05;;
22754;SDS011;11544;42.020;23.094;2022-07-11T06:13:43;1.73;;;1.60;;
22754;SDS011;11544;42.020;23.094;2022-07-11T06:16:10;3.45;;;1.65;;
22754;SDS011;11544;42.020;23.094;2022-07-11T06:18:41;3.80;;;1.80;;
22754;SDS011;11544;42.020;23.094;2022-07-11T06:21:08;3.20;;;1.90;;
22754;SDS011;11544;42.020;23.094;2022-07-11T06:23:34;3.72;;;2.13;;
22754;SDS011;11544;42.020;23.094;2022-07-11T06:26:00;3.50;;;2.05;;
22754;SDS011;11544;42.020;23.094;2022-07-11T06:28:26;4.50;;;1.95;;
22754;SDS011;11544;42.020;23.094;2022-07-11T06:30:52;2.53;;;1.70;;
22754;SDS011;11544;42.020;23.094;2022-07-11T06:33:19;2.28;;;1.98;;
22754;SDS011;11544;42.020;23.094;2022-07-11T06:35:45;3.80;;;1.70;;
22754;SDS011;11544;42.020;23.094;2022-07-11T06:38:12;7.18;;;2.22;;
22754;SDS011;11544;42.020;23.094;2022-07-11T06:40:39;6.55;;;2.13;;
22754;SDS011;11544;42.020;23.094;2022-07-11T06:43:07;5.95;;;2.10;;
22754;SDS011;11544;42.020;23.094;2022-07-11T06:45:35;3.42;;;2.00;;
22754;SDS011;11544;42.020;23.094;2022-07-11T06:48:02;3.72;;;1.80;;
22754;SDS011;11544;42.020;23.094;2022-07-11T06:50:28;4.20;;;1.75;;
22754;SDS011;11544;42.020;23.094;2022-07-11T06:52:54;4.63;;;2.10;;
22754;SDS011;11544;42.020;23.094;2022-07-11T06:55:20;5.00;;;2.00;;
22754;SDS011;11544;42.020;23.094;2022-07-11T06:57:45;6.13;;;2.40;;
22754;SDS011;11544;42.020;23.094;2022-07-11T07:00:11;5.57;;;1.90;;
22754;SDS011;11544;42.020;23.094;2022-07-11T07:02:37;6.32;;;2.22;;
22754;SDS011;11544;42.020;23.094;2022-07-11T07:05:04;4.20;;;1.80;;
22754;SDS011;11544;42.020;23.094;2022-07-11T07:07:30;2.60;;;1.90;;
22754;SDS011;11544;42.020;23.094;2022-07-11T07:09:56;3.05;;;2.28;;
22754;SDS011;11544;42.020;23.094;2022-07-11T07:12:22;5.60;;;1.90;;
22754;SDS011;11544;42.020;23.094;2022-07-11T07:14:49;5.55;;;1.83;;
22754;SDS011;11544;42.020;23.094;2022-07-11T07:17:15;2.45;;;1.50;;
22754;SDS011;11544;42.020;23.094;2022-07-11T07:19:41;1.70;;;1.23;;
22754;SDS011;11544;42.020;23.094;2022-07-11T07:22:07;3.05;;;2.08;;
22754;SDS011;11544;42.020;23.094;2022-07-11T07:24:34;5.55;;;1.65;;
22754;SDS011;11544;42.020;23.094;2022-07-11T07:27:03;3.63;;;1.52;;
22754;SDS011;11544;42.020;23.094;2022-07-11T07:29:30;2.72;;;1.92;;
22754;SDS011;11544;42.020;23.094;2022-07-11T07:31:56;2.53;;;1.50;;
22754;SDS011;11544;42.020;23.094;2022-07-11T07:34:22;5.50;;;1.52;;
22754;SDS011;11544;42.020;23.094;2022-07-11T07:36:48;3.88;;;1.90;;
22754;SDS011;11544;42.020;23.094;2022-07-11T07:39:13;6.13;;;1.90;;
22754;SDS011;11544;42.020;23.094;2022-07-11T07:41:39;3.20;;;1.60;;
22754;SDS011;11544;42.020;23.094;2022-07-11T07:44:04;2.13;;;1.27;;
22754;SDS011;11544;42.020;23.094;2022-07-11T07:46:30;4.82;;;1.70;;
22754;SDS011;11544;42.020;23.094;2022-07-11T07:48:56;1.50;;;1.38;;
22754;SDS011;11544;42.020;23.094;2022-07-11T07:51:22;4.60;;;1.27;;
22754;SDS011;11544;42.020;23.094;2022-07-11T07:53:48;2.67;;;1.50;;
22754;SDS011;11544;42.020;23.094;2022-07-11T07:56:14;3.00;;;1.52;;
22754;SDS011;11544;42.020;23.094;2022-07-11T07:58:40;1.77;;;1.30;;
22754;SDS011;11544;42.020;23.094;2022-07-11T08:01:06;3.45;;;1.50;;
22754;SDS011;11544;42.020;23.094;2022-07-11T08:03:51;1.60;;;1.23;;
22754;SDS011;11544;42.020;23.094;2022-07-11T08:06:17;4.53;;;1.45;;
22754;SDS011;11544;42.020;23.094;2022-07-11T08:08:43;3.05;;;1.65;;
22754;SDS011;11544;42.020;23.094;2022-07-11T08:11:09;3.72;;;1.70;;
22754;SDS011;11544;42.020;23.094;2022-07-11T08:13:35;3.63;;;1.30;;
22754;SDS011;11544;42.020;23.094;2022-07-11T08:16:04;5.50;;;1.75;;
22754;SDS011;11544;42.020;23.094;2022-07-11T08:18:32;3.72;;;1.58;;
22754;SDS011;11544;42.020;23.094;2022-07-11T08:20:58;2.00;;;0.98;;
22754;SDS011;11544;42.020;23.094;2022-07-11T08:23:24;4.70;;;2.05;;
22754;SDS011;11544;42.020;23.094;2022-07-11T08:25:50;1.17;;;0.90;;
22754;SDS011;11544;42.020;23.094;2022-07-11T08:28:16;2.38;;;1.27;;
22754;SDS011;11544;42.020;23.094;2022-07-11T08:30:42;3.13;;;1.30;;
22754;SDS011;11544;42.020;23.094;2022-07-11T08:33:08;2.80;;;0.93;;
22754;SDS011;11544;42.020;23.094;2022-07-11T08:35:34;4.10;;;1.70;;
22754;SDS011;11544;42.020;23.094;2022-07-11T08:38:00;1.67;;;0.95;;
22754;SDS011;11544;42.020;23.094;2022-07-11T08:40:26;4.03;;;1.40;;
22754;SDS011;11544;42.020;23.094;2022-07-11T08:42:52;3.75;;;1.23;;
22754;SDS011;11544;42.020;23.094;2022-07-11T08:45:20;5.53;;;1.40;;
22754;SDS011;11544;42.020;23.094;2022-07-11T08:47:54;6.38;;;1.55;;
22754;SDS011;11544;42.020;23.094;2022-07-11T08:50:20;2.53;;;1.27;;
22754;SDS011;11544;42.020;23.094;2022-07-11T08:52:47;1.30;;;1.20;;
22754;SDS011;11544;42.020;23.094;2022-07-11T08:55:12;4.32;;;1.02;;
22754;SDS011;11544;42.020;23.094;2022-07-11T08:57:38;4.55;;;1.50;;
22754;SDS011;11544;42.020;23.094;2022-07-11T09:00:04;4.05;;;1.40;;
22754;SDS011;11544;42.020;23.094;2022-07-11T09:02:33;2.88;;;1.00;;
22754;SDS011;11544;42.020;23.094;2022-07-11T09:05:00;3.83;;;1.00;;
22754;SDS011;11544;42.020;23.094;2022-07-11T09:07:28;6.18;;;1.10;;
22754;SDS011;11544;42.020;23.094;2022-07-11T09:09:55;1.80;;;1.00;;
22754;SDS011;11544;42.020;23.094;2022-07-11T09:12:21;1.98;;;1.23;;
22754;SDS011;11544;42.020;23.094;2022-07-11T09:14:47;3.55;;;1.75;;
22754;SDS011;11544;42.020;23.094;2022-07-11T09:17:19;3.63;;;1.10;;
22754;SDS011;11544;42.020;23.094;2022-07-11T09:19:50;1.48;;;0.80;;
22754;SDS011;11544;42.020;23.094;2022-07-11T09:22:16;2.30;;;1.25;;
22754;SDS011;11544;42.020;23.094;2022-07-11T09:25:02;2.03;;;1.00;;
22754;SDS011;11544;42.020;23.094;2022-07-11T09:27:52;3.55;;;0.95;;
22754;SDS011;11544;42.020;23.094;2022-07-11T09:30:25;3.42;;;1.42;;
22754;SDS011;11544;42.020;23.094;2022-07-11T09:32:54;7.07;;;1.30;;
22754;SDS011;11544;42.020;23.094;2022-07-11T09:35:28;3.63;;;0.80;;
22754;SDS011;11544;42.020;23.094;2022-07-11T09:38:10;2.95;;;1.13;;
22754;SDS011;11544;42.020;23.094;2022-07-11T09:40:38;2.72;;;0.95;;
22754;SDS011;11544;42.020;23.094;2022-07-11T09:43:08;1.17;;;0.80;;
22754;SDS011;11544;42.020;23.094;2022-07-11T09:45:34;3.60;;;0.80;;
22754;SDS011;11544;42.020;23.094;2022-07-11T09:48:01;4.05;;;0.73;;
22754;SDS011;11544;42.020;23.094;2022-07-11T09:50:33;2.58;;;0.77;;
22754;SDS011;11544;42.020;23.094;2022-07-11T09:53:00;1.80;;;0.85;;
22754;SDS011;11544;42.020;23.094;2022-07-11T09:55:36;4.40;;;0.95;;
22754;SDS011;11544;42.020;23.094;2022-07-11T09:58:03;5.80;;;1.10;;
22754;SDS011;11544;42.020;23.094;2022-07-11T10:00:34;1.85;;;0.65;;
22754;SDS011;11544;42.020;23.094;2022-07-11T10:03:00;3.63;;;1.00;;
22754;SDS011;11544;42.020;23.094;2022-07-11T10:05:27;2.92;;;0.80;;
22754;SDS011;11544;42.020;23.094;2022-07-11T10:07:54;1.70;;;0.73;;
22754;SDS011;11544;42.020;23.094;2022-07-11T10:10:21;1.23;;;0.60;;
22754;SDS011;11544;42.020;23.094;2022-07-11T10:12:47;6.03;;;0.80;;
22754;SDS011;11544;42.020;23.094;2022-07-11T10:15:16;1.75;;;0.70;;
22754;SDS011;11544;42.020;23.094;2022-07-11T10:23:19;1.90;;;0.60;;
22754;SDS011;11544;42.020;23.094;2022-07-11T10:26:00;0.40;;;0.40;;
22754;SDS011;11544;42.020;23.094;2022-07-11T10:30:58;1.27;;;0.70;;
22754;SDS011;11544;42.020;23.094;2022-07-11T10:33:27;1.45;;;0.57;;
22754;SDS011;11544;42.020;23.094;2022-07-11T10:35:54;2.22;;;0.60;;
22754;SDS011;11544;42.020;23.094;2022-07-11T10:38:21;3.20;;;0.68;;
22754;SDS011;11544;42.020;23.094;2022-07-11T10:45:58;3.28;;;0.60;;
22754;SDS011;11544;42.020;23.094;2022-07-11T10:48:24;2.67;;;0.60;;
22754;SDS011;11544;42.020;23.094;2022-07-11T10:53:32;1.45;;;0.82;;
22754;SDS011;11544;42.020;23.094;2022-07-11T10:59:15;0.88;;;0.70;;
22754;SDS011;11544;42.020;23.094;2022-07-11T11:02:01;1.10;;;0.60;;
22754;SDS011;11544;42.020;23.094;2022-07-11T11:04:50;3.55;;;0.70;;
22754;SDS011;11544;42.020;23.094;2022-07-11T11:07:36;3.58;;;0.73;;
22754;SDS011;11544;42.020;23.094;2022-07-11T11:10:05;0.50;;;0.50;;
22754;SDS011;11544;42.020;23.094;2022-07-11T11:15:33;1.27;;;0.50;;
22754;SDS011;11544;42.020;23.094;2022-07-11T11:23:33;0.95;;;0.63;;
22754;SDS011;11544;42.020;23.094;2022-07-11T11:28:56;2.03;;;0.60;;
22754;SDS011;11544;42.020;23.094;2022-07-11T11:31:24;2.08;;;0.77;;
22754;SDS011;11544;42.020;23.094;2022-07-11T11:33:55;2.00;;;0.70;;
22754;SDS011;11544;42.020;23.094;2022-07-11T11:36:22;0.50;;;0.50;;
22754;SDS011;11544;42.020;23.094;2022-07-11T11:38:49;8.55;;;1.15;;
22754;SDS011;11544;42.020;23.094;2022-07-11T11:41:23;2.63;;;0.70;;
22754;SDS011;11544;42.020;23.094;2022-07-11T11:43:56;2.45;;;0.77;;
22754;SDS011;11544;42.020;23.094;2022-07-11T11:46:24;2.42;;;0.60;;
22754;SDS011;11544;42.020;23.094;2022-07-11T11:48:54;5.18;;;0.70;;
22754;SDS011;11544;42.020;23.094;2022-07-11T11:51:21;0.80;;;0.50;;
22754;SDS011;11544;42.020;23.094;2022-07-11T11:53:48;1.08;;;0.60;;
22754;SDS011;11544;42.020;23.094;2022-07-11T11:58:42;3.05;;;0.90;;
22754;SDS011;11544;42.020;23.094;2022-07-11T12:01:09;4.13;;;0.90;;
22754;SDS011;11544;42.020;23.094;2022-07-11T12:03:58;1.52;;;0.70;;
22754;SDS011;11544;42.020;23.094;2022-07-11T12:06:27;0.90;;;0.70;;
22754;SDS011;11544;42.020;23.094;2022-07-11T12:09:36;0.88;;;0.70;;
22754;SDS011;11544;42.020;23.094;2022-07-11T12:11:45;3.05;;;0.80;;
22754;SDS011;11544;42.020;23.094;2022-07-11T12:14:13;3.92;;;0.80;;
22754;SDS011;11544;42.020;23.094;2022-07-11T12:16:41;2.70;;;1.05;;
22754;SDS011;11544;42.020;23.094;2022-07-11T12:19:16;1.92;;;0.57;;
22754;SDS011;11544;42.020;23.094;2022-07-11T12:21:53;1.40;;;0.77;;
22754;SDS011;11544;42.020;23.094;2022-07-11T12:24:20;2.08;;;0.70;;
22754;SDS011;11544;42.020;23.094;2022-07-11T12:26:48;1.88;;;0.60;;
22754;SDS011;11544;42.020;23.094;2022-07-11T12:29:16;2.72;;;0.80;;
22754;SDS011;11544;42.020;23.094;2022-07-11T12:34:15;2.78;;;1.02;;
22754;SDS011;11544;42.020;23.094;2022-07-11T12:36:45;4.45;;;0.63;;
22754;SDS011;11544;42.020;23.094;2022-07-11T12:39:25;2.70;;;0.88;;
22754;SDS011;11544;42.020;23.094;2022-07-11T12:41:56;1.48;;;0.68;;
22754;SDS011;11544;42.020;23.094;2022-07-11T12:44:30;2.47;;;0.50;;
22754;SDS011;11544;42.020;23.094;2022-07-11T12:47:16;2.60;;;0.80;;
22754;SDS011;11544;42.020;23.094;2022-07-11T12:49:51;2.28;;;0.93;;
22754;SDS011;11544;42.020;23.094;2022-07-11T12:52:17;1.23;;;0.80;;
22754;SDS011;11544;42.020;23.094;2022-07-11T12:54:43;2.95;;;0.70;;
22754;SDS011;11544;42.020;23.094;2022-07-11T12:57:09;3.38;;;0.80;;
22754;SDS011;11544;42.020;23.094;2022-07-11T12:59:40;0.50;;;0.40;;
22754;SDS011;11544;42.020;23.094;2022-07-11T13:02:07;1.50;;;1.15;;
22754;SDS011;11544;42.020;23.094;2022-07-11T13:10:07;0.75;;;0.60;;
22754;SDS011;11544;42.020;23.094;2022-07-11T13:12:35;2.92;;;0.93;;
22754;SDS011;11544;42.020;23.094;2022-07-11T13:15:01;2.72;;;1.00;;
22754;SDS011;11544;42.020;23.094;2022-07-11T13:17:57;2.40;;;0.65;;
22754;SDS011;11544;42.020;23.094;2022-07-11T13:20:24;5.75;;;0.80;;
22754;SDS011;11544;42.020;23.094;2022-07-11T13:22:54;1.58;;;0.80;;
22754;SDS011;11544;42.020;23.094;2022-07-11T13:25:20;2.50;;;0.90;;
22754;SDS011;11544;42.020;23.094;2022-07-11T13:27:47;2.90;;;1.05;;
22754;SDS011;11544;42.020;23.094;2022-07-11T13:30:15;1.58;;;1.00;;
22754;SDS011;11544;42.020;23.094;2022-07-11T13:32:46;1.73;;;0.80;;
22754;SDS011;11544;42.020;23.094;2022-07-11T13:35:12;2.03;;;0.80;;
22754;SDS011;11544;42.020;23.094;2022-07-11T13:37:39;4.80;;;0.60;;
22754;SDS011;11544;42.020;23.094;2022-07-11T13:40:09;3.92;;;0.90;;
22754;SDS011;11544;42.020;23.094;2022-07-11T13:42:39;1.27;;;0.75;;
22754;SDS011;11544;42.020;23.094;2022-07-11T13:45:07;2.63;;;0.70;;
22754;SDS011;11544;42.020;23.094;2022-07-11T13:47:34;1.95;;;1.05;;
22754;SDS011;11544;42.020;23.094;2022-07-11T13:50:00;1.27;;;0.77;;
22754;SDS011;11544;42.020;23.094;2022-07-11T13:52:26;5.25;;;1.00;;
22754;SDS011;11544;42.020;23.094;2022-07-11T13:54:53;2.50;;;0.82;;
22754;SDS011;11544;42.020;23.094;2022-07-11T13:57:23;1.63;;;0.80;;
22754;SDS011;11544;42.020;23.094;2022-07-11T13:59:52;1.63;;;0.50;;
22754;SDS011;11544;42.020;23.094;2022-07-11T14:02:18;4.43;;;0.90;;
22754;SDS011;11544;42.020;23.094;2022-07-11T14:04:44;1.85;;;0.82;;
22754;SDS011;11544;42.020;23.094;2022-07-11T14:07:11;2.92;;;0.82;;
22754;SDS011;11544;42.020;23.094;2022-07-11T14:09:37;1.40;;;0.73;;
22754;SDS011;11544;42.020;23.094;2022-07-11T14:12:04;1.58;;;0.70;;
22754;SDS011;11544;42.020;23.094;2022-07-11T14:14:31;0.85;;;0.85;;
22754;SDS011;11544;42.020;23.094;2022-07-11T14:16:58;1.95;;;0.60;;
22754;SDS011;11544;42.020;23.094;2022-07-11T14:19:24;1.67;;;0.75;;
22754;SDS011;11544;42.020;23.094;2022-07-11T14:21:50;1.40;;;0.70;;
22754;SDS011;11544;42.020;23.094;2022-07-11T14:24:19;2.65;;;0.80;;
22754;SDS011;11544;42.020;23.094;2022-07-11T14:26:45;3.25;;;0.95;;
22754;SDS011;11544;42.020;23.094;2022-07-11T14:29:12;1.00;;;0.70;;
22754;SDS011;11544;42.020;23.094;2022-07-11T14:31:41;2.53;;;1.00;;
22754;SDS011;11544;42.020;23.094;2022-07-11T14:34:07;3.28;;;0.90;;
22754;SDS011;11544;42.020;23.094;2022-07-11T14:36:33;1.40;;;0.70;;
22754;SDS011;11544;42.020;23.094;2022-07-11T14:38:59;2.03;;;0.70;;
22754;SDS011;11544;42.020;23.094;2022-07-11T14:41:25;1.25;;;0.80;;
22754;SDS011;11544;42.020;23.094;2022-07-11T14:43:51;4.13;;;0.98;;
22754;SDS011;11544;42.020;23.094;2022-07-11T14:46:17;1.45;;;0.80;;
22754;SDS011;11544;42.020;23.094;2022-07-11T14:48:43;3.10;;;1.33;;
22754;SDS011;11544;42.020;23.094;2022-07-11T14:51:10;1.65;;;0.73;;
22754;SDS011;11544;42.020;23.094;2022-07-11T14:53:36;1.65;;;0.70;;
22754;SDS011;11544;42.020;23.094;2022-07-11T14:56:02;2.28;;;0.70;;
22754;SDS011;11544;42.020;23.094;2022-07-11T14:58:28;2.95;;;0.85;;
22754;SDS011;11544;42.020;23.094;2022-07-11T15:00:54;1.30;;;0.70;;
22754;SDS011;11544;42.020;23.094;2022-07-11T15:03:20;0.85;;;0.70;;
22754;SDS011;11544;42.020;23.094;2022-07-11T15:06:25;2.15;;;0.60;;
22754;SDS011;11544;42.020;23.094;2022-07-11T15:09:09;4.68;;;1.00;;
22754;SDS011;11544;42.020;23.094;2022-07-11T15:11:54;3.25;;;0.90;;
22754;SDS011;11544;42.020;23.094;2022-07-11T15:14:38;0.85;;;0.73;;
22754;SDS011;11544;42.020;23.094;2022-07-11T15:17:04;1.00;;;0.77;;
22754;SDS011;11544;42.020;23.094;2022-07-11T15:19:30;0.85;;;0.43;;